AirNav   Everest Fuels
 
 1466 users online  

KGKY Arlington Municipal Airport
Arlington, Texas, USA

GOING TO ARLINGTON?


FAA INFORMATION EFFECTIVE 10 SEPTEMBER 2020

Location

FAA Identifier: GKY
Lat/Long: 32-39-49.9000N 097-05-39.4000W
32-39.831667N 097-05.656667W
32.6638611,-97.0942778
(estimated)
Elevation: 628.2 ft. / 191.5 m (surveyed)
Variation: 06E (2000)
From city: 4 miles S of ARLINGTON, TX
Time zone: UTC -5 (UTC -6 during Standard Time)
Zip code: 76018

Airport Operations

Airport use: Open to the public
Activation date: 05/1971
Control tower: yes
ARTCC: FORT WORTH CENTER
FSS: FORT WORTH FLIGHT SERVICE STATION
NOTAMs facility: GKY (NOTAM-D service available)
Attendance: CONTINUOUS
Wind indicator: lighted
Segmented circle: yes
Lights: MIRL RWY 16/34 PRESET MED INTST; HIGHER INTST BY ATCT REQ. WHEN ATCT CLSD ACTVT MALSR RWY 34 - CTAF. PAPI RWYS 16 & 34 OPR CONSLY.
Beacon: white-green (lighted land airport)
Operates sunset to sunrise.

Airport Communications

CTAF: 128.625
WX ASOS: 127.375 (817-557-0251)
ARLINGTON GROUND: 121.875 [0700-2100]
ARLINGTON TOWER: 128.625 [0700-2100]
REGIONAL APPROACH: 135.975
REGIONAL DEPARTURE: 135.975
CLEARANCE DELIVERY: 121.875 118.85 ;WHEN GKY TWR CLSD
DODJE STAR: 125.2 125.9
JOE POOL DP: 135.975
KNEAD STAR: 135.975
LIKES STAR: 125.8 ;SOUTH 135.975 ;NORTH
MOTZA STAR: 118.1 ;SOUTH 125.8 ;NORTH
REEKO STAR: 125.2
SANGR STAR: 124.3
SASIE STAR: 124.3
SLUGG STAR: 125.8 ;SOUTH 135.975 ;NORTH
SWVAY STAR: 135.975
WESAT STAR: 118.1 ;SOUTH 125.8 ;NORTH
WX AWOS-3P at GPM (3 nm NE): 118.475 (972-606-1433)
WX ASOS at RBD (11 nm E): PHONE 214-330-5317
WX AWOS-3 at FWS (12 nm SW): 120.025 (817-426-4172)
WX ASOS at DFW (14 nm N): PHONE 972-615-2608
WX AWOS-3 at JWY (15 nm SE): 119.575 (972-937-4747)
WX AWOS-3 at 49T (16 nm NE): 135.425 (214-670-1243)
WX ASOS at DAL (16 nm NE): PHONE 214-353-1551
WX ASOS at FTW (16 nm NW): PHONE 817-740-3346
WX AWOS-3 at LNC (20 nm E): 118.975 (972-227-0471)

Nearby radio navigation aids

VOR radial/distance  VOR name  Freq  Var
TTTr186/12.6MAVERICK VOR/DME113.1006E
FUZr156/14.2RANGER VORTAC115.7006E
CVEr209/16.6COWBOY VOR/DME116.2006E

 
NDB name  Hdg/Dist  Freq  Var  ID
MESQUITE250/29.824803EPQF .--. --.- ..-.

Airport Services

Fuel available: 100LL JET-A
SELF SERVE FUEL WITH MAJOR CREDIT CARD.
Parking: hangars and tiedowns
Airframe service: MAJOR
Powerplant service: MAJOR
Bottled oxygen: LOW
Bulk oxygen: NONE

Runway Information

Runway 16/34

Dimensions: 6080 x 100 ft. / 1853 x 30 m
Surface: concrete, in good condition
Weight bearing capacity: 
Single wheel: 60.0
Runway edge lights: medium intensity
RUNWAY 16  RUNWAY 34
Latitude: 32-40.322683N32-39.341885N
Longitude: 097-05.779817W097-05.533875W
Elevation: 628.2 ft.596.9 ft.
Traffic pattern: leftleft
Runway heading: 162 magnetic, 168 true342 magnetic, 348 true
Markings: nonprecision, in good conditionprecision, in good condition
Visual slope indicator: 4-light PAPI on left (3.00 degrees glide path)4-light PAPI on left (3.00 degrees glide path)
Approach lights: MALSR: 1,400 foot medium intensity approach lighting system with runway alignment indicator lights
Runway end identifier lights: yesno
Touchdown point: yes, no lightsyes, no lights
Instrument approach: ILS/DME

Airport Ownership and Management from official FAA records

Ownership: Publicly-owned
Owner: CITY OF ARLINGTON
PO BOX 90231
ARLINGTON, TX 76004-3231
Phone 817-459-6100
Manager: KAREN VAN WINKLE
5000 S. COLLINS
ARLINGTON, TX 76004-3231
Phone 817-459-5570
SUITE 100

Airport Operational Statistics

Aircraft based on the field: 231
Single engine airplanes: 191
Multi engine airplanes: 24
Jet airplanes: 8
Helicopters: 7
Gliders airplanes: 1
    
Aircraft operations: avg 242/day *
54% transient general aviation
44% local general aviation
1% air taxi
<1% military
<1% commercial
* for 12-month period ending 31 December 2015

Additional Remarks

EXTSV HEL TFC WEST OF RWY.
HEL TEST FAC AT ARPT, 1975 OPNS 15200, MOSTLY FM PVT HELIPAD ADJOINING LNDG AREA.

Instrument Procedures

NOTE: All procedures below are presented as PDF files. If you need a reader for these files, you should download the free Adobe Reader.

NOT FOR NAVIGATION. Please procure official charts for flight.
FAA instrument procedures published for use from 10 September 2020 at 0901Z to 08 October 2020 at 0900z.

 
STARs - Standard Terminal Arrivals
DODJE SIX   2 pages: [1] [2] (766KB)
MOTZA NINE   2 pages: [1] [2] (525KB)
REEKO THREE (RNAV)   download (215KB)
SASIE SIX   2 pages: [1] [2] (512KB)
SWVAY FOUR (RNAV)   download (246KB)
TRUUK TWO (RNAV)   download (215KB)
WESAT TWO (RNAV)   download (208KB)
 
IAPs - Instrument Approach Procedures
ILS OR LOC/DME RWY 34   download (279KB)
RNAV (GPS) RWY 34   download (233KB)
VOR/DME RWY 34   download (218KB)
NOTE: Special Alternate Minimums apply   download (16KB)
 
Departure Procedures
DALLAS SIX   2 pages: [1] [2] (402KB)
GARLAND EIGHT   2 pages: [1] [2] (367KB)
JOE POOL ONE   2 pages: [1] [2] (561KB)
KINGDOM SEVEN   2 pages: [1] [2] (396KB)
KUSSO SIX (RNAV)   2 pages: [1] [2] (345KB)
SWABR SIX (RNAV)   2 pages: [1] [2] (344KB)
TEXOMA EIGHT   2 pages: [1] [2] (504KB)
WORTH FOUR   2 pages: [1] [2] (436KB)
NOTE: Special Take-Off Minimums/Departure Procedures apply   download

Other nearby airports with instrument procedures:

KGPM - Grand Prairie Municipal Airport (3 nm NE)
KRBD - Dallas Executive Airport (11 nm E)
KFWS - Fort Worth Spinks Airport (12 nm SW)
KDFW - Dallas-Fort Worth International Airport (14 nm N)
KJWY - Mid-Way Regional Airport (15 nm SE)
KDAL - Dallas Love Field Airport (16 nm NE)
KFTW - Fort Worth Meacham International Airport (16 nm NW)
KNFW - Fort Worth Naval Air Station JRB (Carswell Field) Airport (19 nm W)
KLNC - Lancaster Regional Airport (20 nm E)
 
Loc | Ops | Rwys | IFR | FBO | Links
Com | Nav | Svcs | Stats | Notes

City of Fort Worth
 
Area around KGKY (Arlington Municipal Airport)
 
Road maps at: MapQuest Bing Google
 
Aerial photo
WARNING: Photo may not be current or correct
Aerial photo of KGKY (Arlington Municipal Airport)
Photo by Jeff Law
Photo taken 19-Feb-2013
looking northwest.

Do you have a better or more recent aerial photo of Arlington Municipal Airport that you would like to share? If so, please send us your photo.

 
Sectional chart

 
Airport diagram
CAUTION: Diagram may not be current
Diagram of KGKY (Arlington Municipal Airport)
 
Airport distance calculator
Flying to Arlington Municipal Airport? Find the distance to fly.

From to KGKY

Sunrise and sunset
Times for 18-Sep-2020
 Local
(UTC-5)
 Zulu
(UTC)
Morning civil twilight06:5111:51
Sunrise07:1612:16
Sunset19:2900:29
Evening civil twilight19:5300:53

Current date and time
Zulu (UTC)  18-Sep-2020 14:59:05
Local (UTC-5)  18-Sep-2020 09:59:05
 
METAR
KGKY 181453Z 05007KT 10SM CLR 25/18 A3013 RMK AO2 SLP195 T02500183 51016
KGPM 
3nm NE 
181450Z 01008KT 10SM SKC 23/18 A3014
KRBD 
12nm E 
181453Z 06008KT 10SM CLR 23/18 A3012 RMK AO2 SLP193 T02330183 51016
KFWS 
12nm SW 
181449Z 03005KT 7SM CLR 23/20 A3015
KDFW 
15nm N 
181453Z 03007KT 10SM FEW050 24/19 A3012 RMK AO2 SLP192 T02390189 51016 $
KJWY 
15nm SE 
181435Z AUTO 03004KT 10SM CLR 23/19 A3014 RMK AO2 T02250193
KDAL 
17nm NE 
181453Z 09005KT 10SM CLR 24/18 A3013 RMK AO2 SLP196 T02440183 51016 $
KFTW 
17nm NW 
181453Z 01007KT 10SM CLR 23/18 A3013 RMK AO2 SLP196 T02280183 51016
KNFW 
19nm W 
181452Z 35008KT 10SM FEW055 SCT150 24/18 A3014 RMK AO2 SLP190 T02440183 51016 $
KLNC 
20nm E 
181435Z AUTO 00000KT 10SM CLR 23/19 A3013 RMK AO2 T02300188
TAF
KGKY 181120Z 1812/1912 01007KT P6SM FEW250 FM181700 03010KT P6SM SCT050 FM182300 05008KT P6SM FEW250
KDFW 
15nm N 
181120Z 1812/1918 01007KT P6SM FEW250 FM181700 03010KT P6SM SCT050 FM182300 05008KT P6SM FEW250
KDAL 
17nm NE 
181120Z 1812/1912 01007KT P6SM FEW250 FM181700 03010KT P6SM SCT050 FM182300 05008KT P6SM FEW250
KFTW 
17nm NW 
181120Z 1812/1912 01007KT P6SM FEW250 FM181700 03010KT P6SM SCT050 FM182300 05008KT P6SM FEW250
KNFW 
19nm W 
1807/1907 VRB06KT 9999 FEW045 SCT160 QNH3000INS BECMG 1807/1809 03010KT 9999 FEW020 SCT030 QNH3000INS BECMG 1816/1818 06010KT 9999 SCT030 SCT050 QNH3002INS AUTOMATED SENSOR METWATCH 1807 TIL 1811 T19/1812Z T30/1821Z FN00204
NOTAMs
Click for the latest NOTAMs
NOTAMs are issued by the DoD/FAA and will open in a separate window not controlled by AirNav.

 

 
 

FBO, Fuel Providers, and Aircraft Ground Support

  
 Business Name 
 
 Contact 
 
 Services / Description 
 
Fuel Prices
 
Comments
  
Harrison Aviation ASRI 131.325
817-557-0350
toll-free 1-888-383-5354
[web site]
[email]
Arlington is home to the new Dallas Cowboy Stadium and Arlington Municipal Airport is located in the heart of the DFW metroplex just 6 Miles from AT&T Stadium and quick access to I-20 and Hwy 360.
Come for your business meeting and then stay for the entertation ainment (Dallas Cowboys, Texas Rangers, Texas Live, Lone Star Park, Nokia Theater)
More info and photos of Harrison Aviation
 
NATA Safety 1st   U.S. Government Contract Fuel   Crew cars   National Business Aviation Association  
 
Shell
100LL Jet A
FS $4.09 $4.25 
SS $3.55 --- 
 Updated 09-Sep-2020
 
   5 read write
Alternatives at nearby airports
IMPORTANT: Note that the FBOs below are NOT at KGKY but at other nearby airports. Do not expect services from these FBOs to be available at KGKY.
Located at KRBD
Ambassador Jet Center
ASRI 131.90
214-623-8800
214-251-6512
[web site]
[email]
At KRBD (Dallas Executive Airport), 11 miles E

Premier FBO situated minutes south of Downtown Dallas in the growing Southern Sector of the Dallas warehouse and distribution district.

No daily ramp or landing fees (overnight ramp and hangar fees do apply.)

Enjoy unmatched personal service and inviting facilities designed to make your stay enjoyable.

Give one of our Customer Service Agents a call today and let us arrange your next Metro Dallas area visit..
More info and photos of Ambassador Jet Center (KRBD)
Located at KRBD
Avfuel
100LL Jet A
FS $4.29 $3.89 
GUARANTEED
AirBossMEMBER
PRICING
FS $4.19 $3.74 
 
   34 read write
FS=Full service
SS=Self service
Update Fuel Prices
 

Aviation Businesses, Services, and Facilities

  
 Business Name 
 
 Contact 
 
 Services / Description 
 
Distance
 
Comments
  
Airline Transport Professionals - ATP Flight School 904-595-7950
[web site]
[email]
ATP provides professional, accelerated, airline-oriented flight training at 42 flight schools nationwide. ATP's Airline Career Pilot Program prepares pilots for airline careers from zero time to 1,500 hours, with CFI jobs and airline employment. Fly with the nation's largest flight school and gain access to more aircraft, locations, and job placements than any flight school, academy, or aviation university can offer.
More info and photos of Airline Transport Professionals - ATP Flight School
on airport  
   write
 Van Bortel Aircraft
817-468-7788
toll-free 1-800-759-4295
[web site]
[email]
Aircraft maintenance, Avionics sales and service, Aircraft modifications, Aircraft parts, Aviation accessories, Aircraft sales / leasing / brokerage
 
Cessna Service Center   Garmin  
 
More info about Van Bortel Aircraft
on airport  
   write
 

Would you like to see your business listed on this page?

 If your business provides an interesting product or service to pilots, flight crews, aircraft, or users of the Arlington Municipal Airport, you should consider listing it here.  To start the listing process, click on the button below
 
Add a business
 

Other Pages about Arlington Municipal Airport

www.arlingtontx.gov/...
 
Update a link
 
Copyright © AirNav, LLC. All rights reserved. Privacy Policy  Contact